sensor_id;sensor_type;location;lat;lon;timestamp;temperature;humidity
37240;DHT22;23130;48.760;9.178;2022-11-20T00:02:08;5.10;99.90
37240;DHT22;23130;48.760;9.178;2022-11-20T00:04:33;4.80;99.90
37240;DHT22;23130;48.760;9.178;2022-11-20T00:06:59;4.90;99.90
37240;DHT22;23130;48.760;9.178;2022-11-20T00:09:24;4.90;99.90
37240;DHT22;23130;48.760;9.178;2022-11-20T00:11:50;4.90;99.90
37240;DHT22;23130;48.760;9.178;2022-11-20T00:14:15;4.90;99.90
37240;DHT22;23130;48.760;9.178;2022-11-20T00:16:40;5.00;99.90
37240;DHT22;23130;48.760;9.178;2022-11-20T00:19:06;5.00;99.90
37240;DHT22;23130;48.760;9.178;2022-11-20T00:21:31;5.10;99.90
37240;DHT22;23130;48.760;9.178;2022-11-20T00:23:57;5.10;99.90
37240;DHT22;23130;48.760;9.178;2022-11-20T00:26:24;5.10;99.90
37240;DHT22;23130;48.760;9.178;2022-11-20T00:28:50;5.00;99.90
37240;DHT22;23130;48.760;9.178;2022-11-20T00:31:17;5.10;99.90
37240;DHT22;23130;48.760;9.178;2022-11-20T00:33:42;5.20;99.90
37240;DHT22;23130;48.760;9.178;2022-11-20T00:36:09;5.20;99.90
37240;DHT22;23130;48.760;9.178;2022-11-20T00:38:35;5.20;99.90
37240;DHT22;23130;48.760;9.178;2022-11-20T00:41:02;5.20;99.90
37240;DHT22;23130;48.760;9.178;2022-11-20T00:43:28;5.30;99.90
37240;DHT22;23130;48.760;9.178;2022-11-20T00:46:00;5.40;99.90
37240;DHT22;23130;48.760;9.178;2022-11-20T00:48:26;5.30;99.90
37240;DHT22;23130;48.760;9.178;2022-11-20T00:50:52;5.30;99.90
37240;DHT22;23130;48.760;9.178;2022-11-20T00:53:17;5.30;99.90
37240;DHT22;23130;48.760;9.178;2022-11-20T00:55:43;5.30;99.90
37240;DHT22;23130;48.760;9.178;2022-11-20T00:58:08;5.30;99.90
37240;DHT22;23130;48.760;9.178;2022-11-20T01:00:34;5.30;99.90
37240;DHT22;23130;48.760;9.178;2022-11-20T01:03:02;5.40;99.90
37240;DHT22;23130;48.760;9.178;2022-11-20T01:05:27;5.40;99.90
37240;DHT22;23130;48.760;9.178;2022-11-20T01:07:53;5.50;99.90
37240;DHT22;23130;48.760;9.178;2022-11-20T01:10:18;5.50;99.90
37240;DHT22;23130;48.760;9.178;2022-11-20T01:12:44;5.50;99.90
37240;DHT22;23130;48.760;9.178;2022-11-20T01:15:29;5.50;99.90
37240;DHT22;23130;48.760;9.178;2022-11-20T01:17:55;5.60;99.90
37240;DHT22;23130;48.760;9.178;2022-11-20T01:20:20;5.50;99.90
37240;DHT22;23130;48.760;9.178;2022-11-20T01:22:45;5.50;99.90
37240;DHT22;23130;48.760;9.178;2022-11-20T01:25:11;5.50;99.90
37240;DHT22;23130;48.760;9.178;2022-11-20T01:27:36;5.50;99.90
37240;DHT22;23130;48.760;9.178;2022-11-20T01:30:02;5.50;99.90
37240;DHT22;23130;48.760;9.178;2022-11-20T01:32:27;5.40;99.90
37240;DHT22;23130;48.760;9.178;2022-11-20T01:34:53;5.50;99.90
37240;DHT22;23130;48.760;9.178;2022-11-20T01:37:18;5.40;99.90
37240;DHT22;23130;48.760;9.178;2022-11-20T01:39:44;5.40;99.90
37240;DHT22;23130;48.760;9.178;2022-11-20T01:42:09;5.40;99.90
37240;DHT22;23130;48.760;9.178;2022-11-20T01:44:59;5.40;99.90
37240;DHT22;23130;48.760;9.178;2022-11-20T01:47:27;5.30;99.90
37240;DHT22;23130;48.760;9.178;2022-11-20T01:49:56;5.30;99.90
37240;DHT22;23130;48.760;9.178;2022-11-20T01:52:26;5.30;99.90
37240;DHT22;23130;48.760;9.178;2022-11-20T01:54:54;5.20;99.90
37240;DHT22;23130;48.760;9.178;2022-11-20T01:57:21;5.20;99.90
37240;DHT22;23130;48.760;9.178;2022-11-20T01:59:50;5.10;99.90
37240;DHT22;23130;48.760;9.178;2022-11-20T02:02:18;5.10;99.90
37240;DHT22;23130;48.760;9.178;2022-11-20T02:04:44;5.00;99.90
37240;DHT22;23130;48.760;9.178;2022-11-20T02:07:09;5.00;99.90
37240;DHT22;23130;48.760;9.178;2022-11-20T02:09:35;5.00;99.90
37240;DHT22;23130;48.760;9.178;2022-11-20T02:12:01;5.00;99.90
37240;DHT22;23130;48.760;9.178;2022-11-20T02:14:26;4.90;99.90
37240;DHT22;23130;48.760;9.178;2022-11-20T02:16:52;4.90;99.90
37240;DHT22;23130;48.760;9.178;2022-11-20T02:19:22;4.90;99.90
37240;DHT22;23130;48.760;9.178;2022-11-20T02:22:00;4.90;99.90
37240;DHT22;23130;48.760;9.178;2022-11-20T02:24:27;5.00;99.90
37240;DHT22;23130;48.760;9.178;2022-11-20T02:27:06;5.00;99.90
37240;DHT22;23130;48.760;9.178;2022-11-20T02:29:35;5.00;99.90
37240;DHT22;23130;48.760;9.178;2022-11-20T02:32:01;5.00;99.90
37240;DHT22;23130;48.760;9.178;2022-11-20T02:34:27;5.00;99.90
37240;DHT22;23130;48.760;9.178;2022-11-20T02:36:54;5.00;99.90
37240;DHT22;23130;48.760;9.178;2022-11-20T02:39:20;4.90;99.90
37240;DHT22;23130;48.760;9.178;2022-11-20T02:41:47;4.90;99.90
37240;DHT22;23130;48.760;9.178;2022-11-20T02:44:12;4.90;99.90
37240;DHT22;23130;48.760;9.178;2022-11-20T02:46:38;4.80;99.90
37240;DHT22;23130;48.760;9.178;2022-11-20T02:49:04;4.80;99.90
37240;DHT22;23130;48.760;9.178;2022-11-20T02:51:29;4.80;99.90
37240;DHT22;23130;48.760;9.178;2022-11-20T02:53:55;4.80;99.90
37240;DHT22;23130;48.760;9.178;2022-11-20T02:56:21;4.90;99.90
37240;DHT22;23130;48.760;9.178;2022-11-20T02:58:46;4.90;99.90
37240;DHT22;23130;48.760;9.178;2022-11-20T03:01:12;5.00;99.90
37240;DHT22;23130;48.760;9.178;2022-11-20T03:03:37;5.10;99.90
37240;DHT22;23130;48.760;9.178;2022-11-20T03:06:03;5.10;99.90
37240;DHT22;23130;48.760;9.178;2022-11-20T03:08:28;5.10;99.90
37240;DHT22;23130;48.760;9.178;2022-11-20T03:10:54;5.20;99.90
37240;DHT22;23130;48.760;9.178;2022-11-20T03:13:19;5.20;99.90
37240;DHT22;23130;48.760;9.178;2022-11-20T03:15:44;5.30;99.90
37240;DHT22;23130;48.760;9.178;2022-11-20T03:18:10;5.20;99.90
37240;DHT22;23130;48.760;9.178;2022-11-20T03:20:35;5.20;99.90
37240;DHT22;23130;48.760;9.178;2022-11-20T03:23:01;5.20;99.90
37240;DHT22;23130;48.760;9.178;2022-11-20T03:25:27;5.10;99.90
37240;DHT22;23130;48.760;9.178;2022-11-20T03:27:53;5.20;99.90
37240;DHT22;23130;48.760;9.178;2022-11-20T03:30:19;5.10;99.90
37240;DHT22;23130;48.760;9.178;2022-11-20T03:32:45;5.20;99.90
37240;DHT22;23130;48.760;9.178;2022-11-20T03:35:10;5.20;99.90
37240;DHT22;23130;48.760;9.178;2022-11-20T03:37:36;5.10;99.90
37240;DHT22;23130;48.760;9.178;2022-11-20T03:40:01;5.10;99.90
37240;DHT22;23130;48.760;9.178;2022-11-20T03:42:27;5.00;99.90
37240;DHT22;23130;48.760;9.178;2022-11-20T03:45:10;4.90;99.90
37240;DHT22;23130;48.760;9.178;2022-11-20T03:47:36;4.90;99.90
37240;DHT22;23130;48.760;9.178;2022-11-20T03:50:02;4.80;99.90
37240;DHT22;23130;48.760;9.178;2022-11-20T03:52:27;4.80;99.90
37240;DHT22;23130;48.760;9.178;2022-11-20T03:54:53;4.80;99.90
37240;DHT22;23130;48.760;9.178;2022-11-20T03:57:18;4.70;99.90
37240;DHT22;23130;48.760;9.178;2022-11-20T03:59:44;4.70;99.90
37240;DHT22;23130;48.760;9.178;2022-11-20T04:02:09;4.70;99.90
37240;DHT22;23130;48.760;9.178;2022-11-20T04:04:35;4.60;99.90
37240;DHT22;23130;48.760;9.178;2022-11-20T04:07:00;4.60;99.90
37240;DHT22;23130;48.760;9.178;2022-11-20T04:09:26;4.60;99.90
37240;DHT22;23130;48.760;9.178;2022-11-20T04:11:51;4.50;99.90
37240;DHT22;23130;48.760;9.178;2022-11-20T04:14:16;4.50;99.90
37240;DHT22;23130;48.760;9.178;2022-11-20T04:16:42;4.40;99.90
37240;DHT22;23130;48.760;9.178;2022-11-20T04:19:12;4.50;99.90
37240;DHT22;23130;48.760;9.178;2022-11-20T04:21:38;4.50;99.90
37240;DHT22;23130;48.760;9.178;2022-11-20T04:24:03;4.50;99.90
37240;DHT22;23130;48.760;9.178;2022-11-20T04:26:29;4.50;99.90
37240;DHT22;23130;48.760;9.178;2022-11-20T04:28:55;4.50;99.90
37240;DHT22;23130;48.760;9.178;2022-11-20T04:31:22;4.50;99.90
37240;DHT22;23130;48.760;9.178;2022-11-20T04:33:47;4.50;99.90
37240;DHT22;23130;48.760;9.178;2022-11-20T04:36:14;4.60;99.90
37240;DHT22;23130;48.760;9.178;2022-11-20T04:38:40;4.60;99.90
37240;DHT22;23130;48.760;9.178;2022-11-20T04:41:06;4.70;99.90
37240;DHT22;23130;48.760;9.178;2022-11-20T04:43:32;4.70;99.90
37240;DHT22;23130;48.760;9.178;2022-11-20T04:45:58;4.70;99.90
37240;DHT22;23130;48.760;9.178;2022-11-20T04:48:25;4.70;99.90
37240;DHT22;23130;48.760;9.178;2022-11-20T04:50:51;4.80;99.90
37240;DHT22;23130;48.760;9.178;2022-11-20T04:53:16;4.80;99.90
37240;DHT22;23130;48.760;9.178;2022-11-20T04:55:42;4.70;99.90
37240;DHT22;23130;48.760;9.178;2022-11-20T04:58:08;4.70;99.90
37240;DHT22;23130;48.760;9.178;2022-11-20T05:00:33;4.70;99.90
37240;DHT22;23130;48.760;9.178;2022-11-20T05:02:59;4.70;99.90
37240;DHT22;23130;48.760;9.178;2022-11-20T05:05:24;4.80;99.90
37240;DHT22;23130;48.760;9.178;2022-11-20T05:07:50;4.90;99.90
37240;DHT22;23130;48.760;9.178;2022-11-20T05:10:15;4.90;99.90
37240;DHT22;23130;48.760;9.178;2022-11-20T05:12:40;5.00;99.90
37240;DHT22;23130;48.760;9.178;2022-11-20T05:15:06;5.00;99.90
37240;DHT22;23130;48.760;9.178;2022-11-20T05:17:32;5.10;99.90
37240;DHT22;23130;48.760;9.178;2022-11-20T05:19:57;5.10;99.90
37240;DHT22;23130;48.760;9.178;2022-11-20T05:22:23;5.10;99.90
37240;DHT22;23130;48.760;9.178;2022-11-20T05:24:48;5.10;99.90
37240;DHT22;23130;48.760;9.178;2022-11-20T05:27:14;5.00;99.90
37240;DHT22;23130;48.760;9.178;2022-11-20T05:29:39;5.00;99.90
37240;DHT22;23130;48.760;9.178;2022-11-20T05:32:05;5.00;99.90
37240;DHT22;23130;48.760;9.178;2022-11-20T05:34:32;5.00;99.90
37240;DHT22;23130;48.760;9.178;2022-11-20T05:36:58;5.10;99.90
37240;DHT22;23130;48.760;9.178;2022-11-20T05:39:23;5.00;99.90
37240;DHT22;23130;48.760;9.178;2022-11-20T05:41:48;5.00;99.90
37240;DHT22;23130;48.760;9.178;2022-11-20T05:44:34;5.00;99.90
37240;DHT22;23130;48.760;9.178;2022-11-20T05:46:59;5.00;99.90
37240;DHT22;23130;48.760;9.178;2022-11-20T05:49:25;5.00;99.90
37240;DHT22;23130;48.760;9.178;2022-11-20T05:51:50;5.10;99.90
37240;DHT22;23130;48.760;9.178;2022-11-20T05:54:16;5.00;99.90
37240;DHT22;23130;48.760;9.178;2022-11-20T05:56:41;5.00;99.90
37240;DHT22;23130;48.760;9.178;2022-11-20T05:59:07;5.00;99.90
37240;DHT22;23130;48.760;9.178;2022-11-20T06:01:32;5.00;99.90
37240;DHT22;23130;48.760;9.178;2022-11-20T06:03:58;5.00;99.90
37240;DHT22;23130;48.760;9.178;2022-11-20T06:06:23;5.00;99.90
37240;DHT22;23130;48.760;9.178;2022-11-20T06:08:50;5.00;99.90
37240;DHT22;23130;48.760;9.178;2022-11-20T06:11:16;5.10;99.90
37240;DHT22;23130;48.760;9.178;2022-11-20T06:13:42;5.10;99.90
37240;DHT22;23130;48.760;9.178;2022-11-20T06:16:07;5.10;99.90
37240;DHT22;23130;48.760;9.178;2022-11-20T06:18:33;5.10;99.90
37240;DHT22;23130;48.760;9.178;2022-11-20T06:20:59;5.10;99.90
37240;DHT22;23130;48.760;9.178;2022-11-20T06:23:25;5.10;99.90
37240;DHT22;23130;48.760;9.178;2022-11-20T06:25:50;5.10;99.90
37240;DHT22;23130;48.760;9.178;2022-11-20T06:28:16;5.10;99.90
37240;DHT22;23130;48.760;9.178;2022-11-20T06:30:44;5.20;99.90
37240;DHT22;23130;48.760;9.178;2022-11-20T06:33:10;5.10;99.90
37240;DHT22;23130;48.760;9.178;2022-11-20T06:35:35;5.20;99.90
37240;DHT22;23130;48.760;9.178;2022-11-20T06:38:00;5.30;99.90
37240;DHT22;23130;48.760;9.178;2022-11-20T06:40:26;5.30;99.90
37240;DHT22;23130;48.760;9.178;2022-11-20T06:42:53;5.30;99.90
37240;DHT22;23130;48.760;9.178;2022-11-20T06:45:18;5.30;99.90
37240;DHT22;23130;48.760;9.178;2022-11-20T06:47:44;5.30;99.90
37240;DHT22;23130;48.760;9.178;2022-11-20T06:50:09;5.30;99.90
37240;DHT22;23130;48.760;9.178;2022-11-20T06:52:35;5.30;99.90
37240;DHT22;23130;48.760;9.178;2022-11-20T06:55:00;5.40;99.90
37240;DHT22;23130;48.760;9.178;2022-11-20T06:57:26;5.30;99.90
37240;DHT22;23130;48.760;9.178;2022-11-20T06:59:51;5.30;99.90
37240;DHT22;23130;48.760;9.178;2022-11-20T07:02:17;5.30;99.90
37240;DHT22;23130;48.760;9.178;2022-11-20T07:04:42;5.30;99.90
37240;DHT22;23130;48.760;9.178;2022-11-20T07:07:08;5.30;99.90
37240;DHT22;23130;48.760;9.178;2022-11-20T07:09:33;5.30;99.90
37240;DHT22;23130;48.760;9.178;2022-11-20T07:11:59;5.30;99.90
37240;DHT22;23130;48.760;9.178;2022-11-20T07:14:25;5.40;99.90
37240;DHT22;23130;48.760;9.178;2022-11-20T07:16:51;5.40;99.90
37240;DHT22;23130;48.760;9.178;2022-11-20T07:19:16;5.40;99.90
37240;DHT22;23130;48.760;9.178;2022-11-20T07:21:42;5.60;99.90
37240;DHT22;23130;48.760;9.178;2022-11-20T07:24:07;5.50;99.90
37240;DHT22;23130;48.760;9.178;2022-11-20T07:26:33;5.50;99.90
37240;DHT22;23130;48.760;9.178;2022-11-20T07:28:58;5.60;99.90
37240;DHT22;23130;48.760;9.178;2022-11-20T07:31:24;5.80;99.90
37240;DHT22;23130;48.760;9.178;2022-11-20T07:33:49;5.70;99.90
37240;DHT22;23130;48.760;9.178;2022-11-20T07:36:15;5.80;99.90
37240;DHT22;23130;48.760;9.178;2022-11-20T07:38:40;5.90;99.90
37240;DHT22;23130;48.760;9.178;2022-11-20T07:41:06;5.90;99.90
37240;DHT22;23130;48.760;9.178;2022-11-20T07:43:31;5.90;99.90
37240;DHT22;23130;48.760;9.178;2022-11-20T07:45:57;5.90;99.90
37240;DHT22;23130;48.760;9.178;2022-11-20T07:48:23;6.00;99.90
37240;DHT22;23130;48.760;9.178;2022-11-20T07:50:49;6.00;99.90
37240;DHT22;23130;48.760;9.178;2022-11-20T07:53:14;6.10;99.90
37240;DHT22;23130;48.760;9.178;2022-11-20T07:55:46;6.10;99.90
37240;DHT22;23130;48.760;9.178;2022-11-20T07:58:11;6.10;99.90
37240;DHT22;23130;48.760;9.178;2022-11-20T08:00:37;6.20;99.90
37240;DHT22;23130;48.760;9.178;2022-11-20T08:03:03;6.20;99.90
37240;DHT22;23130;48.760;9.178;2022-11-20T08:05:29;6.30;99.90
37240;DHT22;23130;48.760;9.178;2022-11-20T08:07:54;6.30;99.90
37240;DHT22;23130;48.760;9.178;2022-11-20T08:10:19;6.40;99.90
37240;DHT22;23130;48.760;9.178;2022-11-20T08:15:49;6.40;99.90
37240;DHT22;23130;48.760;9.178;2022-11-20T08:18:17;6.50;99.90
37240;DHT22;23130;48.760;9.178;2022-11-20T08:20:42;6.50;99.90
37240;DHT22;23130;48.760;9.178;2022-11-20T08:23:08;6.60;99.90
37240;DHT22;23130;48.760;9.178;2022-11-20T08:25:34;6.70;99.90
37240;DHT22;23130;48.760;9.178;2022-11-20T08:28:01;6.70;99.90
37240;DHT22;23130;48.760;9.178;2022-11-20T08:30:27;6.70;99.90
37240;DHT22;23130;48.760;9.178;2022-11-20T08:32:53;6.80;99.90
37240;DHT22;23130;48.760;9.178;2022-11-20T08:35:19;6.80;99.90
37240;DHT22;23130;48.760;9.178;2022-11-20T08:37:47;6.90;99.90
37240;DHT22;23130;48.760;9.178;2022-11-20T08:40:13;6.90;99.90
37240;DHT22;23130;48.760;9.178;2022-11-20T08:42:45;6.90;99.90
37240;DHT22;23130;48.760;9.178;2022-11-20T08:45:11;6.90;99.90
37240;DHT22;23130;48.760;9.178;2022-11-20T08:47:36;6.90;99.90
37240;DHT22;23130;48.760;9.178;2022-11-20T08:50:02;6.90;99.90
37240;DHT22;23130;48.760;9.178;2022-11-20T08:52:28;7.10;99.90
37240;DHT22;23130;48.760;9.178;2022-11-20T08:54:53;7.30;99.90
37240;DHT22;23130;48.760;9.178;2022-11-20T08:57:19;7.50;99.90
37240;DHT22;23130;48.760;9.178;2022-11-20T08:59:44;7.50;99.90
37240;DHT22;23130;48.760;9.178;2022-11-20T09:02:09;7.60;99.90
37240;DHT22;23130;48.760;9.178;2022-11-20T09:04:35;7.70;99.90
37240;DHT22;23130;48.760;9.178;2022-11-20T09:07:00;7.80;99.90
37240;DHT22;23130;48.760;9.178;2022-11-20T09:09:26;7.80;99.90
37240;DHT22;23130;48.760;9.178;2022-11-20T09:11:51;7.80;99.90
37240;DHT22;23130;48.760;9.178;2022-11-20T09:14:17;7.80;99.90
37240;DHT22;23130;48.760;9.178;2022-11-20T09:16:44;7.80;99.90
37240;DHT22;23130;48.760;9.178;2022-11-20T09:19:09;7.80;99.90
37240;DHT22;23130;48.760;9.178;2022-11-20T09:21:35;7.80;99.90
37240;DHT22;23130;48.760;9.178;2022-11-20T09:24:00;7.80;99.90
37240;DHT22;23130;48.760;9.178;2022-11-20T09:26:26;7.80;99.90
37240;DHT22;23130;48.760;9.178;2022-11-20T09:28:51;7.80;99.90
37240;DHT22;23130;48.760;9.178;2022-11-20T09:31:22;7.90;99.90
37240;DHT22;23130;48.760;9.178;2022-11-20T09:33:48;7.80;99.90
37240;DHT22;23130;48.760;9.178;2022-11-20T09:36:15;7.90;99.90
37240;DHT22;23130;48.760;9.178;2022-11-20T09:38:42;7.80;99.90
37240;DHT22;23130;48.760;9.178;2022-11-20T09:41:10;7.70;99.90
37240;DHT22;23130;48.760;9.178;2022-11-20T09:54:13;7.70;99.90
37240;DHT22;23130;48.760;9.178;2022-11-20T09:56:42;7.70;99.90
37240;DHT22;23130;48.760;9.178;2022-11-20T09:59:14;7.80;99.90
37240;DHT22;23130;48.760;9.178;2022-11-20T10:01:45;7.80;99.90
37240;DHT22;23130;48.760;9.178;2022-11-20T10:04:12;7.80;99.90
37240;DHT22;23130;48.760;9.178;2022-11-20T10:06:48;7.70;99.90
37240;DHT22;23130;48.760;9.178;2022-11-20T10:09:20;7.80;99.90
37240;DHT22;23130;48.760;9.178;2022-11-20T10:11:57;7.70;99.90
37240;DHT22;23130;48.760;9.178;2022-11-20T10:14:31;7.70;99.90
37240;DHT22;23130;48.760;9.178;2022-11-20T10:17:15;7.60;99.90
37240;DHT22;23130;48.760;9.178;2022-11-20T10:22:21;7.50;99.90
37240;DHT22;23130;48.760;9.178;2022-11-20T10:24:55;7.50;99.90
37240;DHT22;23130;48.760;9.178;2022-11-20T10:28:24;7.50;99.90
37240;DHT22;23130;48.760;9.178;2022-11-20T10:30:16;7.50;99.90
37240;DHT22;23130;48.760;9.178;2022-11-20T10:32:43;7.50;99.90
37240;DHT22;23130;48.760;9.178;2022-11-20T10:37:42;7.20;99.90
37240;DHT22;23130;48.760;9.178;2022-11-20T10:40:18;7.20;99.90
37240;DHT22;23130;48.760;9.178;2022-11-20T10:42:49;7.00;99.90
37240;DHT22;23130;48.760;9.178;2022-11-20T10:47:56;6.70;99.90
37240;DHT22;23130;48.760;9.178;2022-11-20T10:50:22;6.70;99.90
37240;DHT22;23130;48.760;9.178;2022-11-20T10:58:05;6.50;99.90
37240;DHT22;23130;48.760;9.178;2022-11-20T11:00:35;6.50;99.90
37240;DHT22;23130;48.760;9.178;2022-11-20T11:03:00;6.50;99.90
37240;DHT22;23130;48.760;9.178;2022-11-20T11:07:57;6.70;99.90
37240;DHT22;23130;48.760;9.178;2022-11-20T11:10:37;6.80;99.90
37240;DHT22;23130;48.760;9.178;2022-11-20T11:13:06;6.80;99.90
37240;DHT22;23130;48.760;9.178;2022-11-20T11:15:41;6.80;99.90
37240;DHT22;23130;48.760;9.178;2022-11-20T11:18:10;6.80;99.90
37240;DHT22;23130;48.760;9.178;2022-11-20T11:20:35;6.90;99.90
37240;DHT22;23130;48.760;9.178;2022-11-20T11:23:01;6.90;99.90
37240;DHT22;23130;48.760;9.178;2022-11-20T11:25:34;7.00;99.90
37240;DHT22;23130;48.760;9.178;2022-11-20T11:28:04;7.10;99.90
37240;DHT22;23130;48.760;9.178;2022-11-20T11:30:40;7.20;99.90
37240;DHT22;23130;48.760;9.178;2022-11-20T11:33:06;7.30;99.90
37240;DHT22;23130;48.760;9.178;2022-11-20T11:35:38;7.30;99.90
37240;DHT22;23130;48.760;9.178;2022-11-20T11:38:05;7.40;99.90
37240;DHT22;23130;48.760;9.178;2022-11-20T11:40:33;7.20;99.90
37240;DHT22;23130;48.760;9.178;2022-11-20T11:43:01;7.40;99.90
37240;DHT22;23130;48.760;9.178;2022-11-20T11:45:26;7.30;99.90
37240;DHT22;23130;48.760;9.178;2022-11-20T11:47:53;7.20;99.90
37240;DHT22;23130;48.760;9.178;2022-11-20T11:50:23;7.20;99.90
37240;DHT22;23130;48.760;9.178;2022-11-20T11:52:54;7.20;99.90
37240;DHT22;23130;48.760;9.178;2022-11-20T11:55:35;7.20;99.90
37240;DHT22;23130;48.760;9.178;2022-11-20T11:58:47;7.20;99.90
37240;DHT22;23130;48.760;9.178;2022-11-20T12:00:50;7.20;99.90
37240;DHT22;23130;48.760;9.178;2022-11-20T12:03:21;7.20;99.90
37240;DHT22;23130;48.760;9.178;2022-11-20T12:05:55;7.20;99.90
37240;DHT22;23130;48.760;9.178;2022-11-20T12:08:27;7.30;99.90
37240;DHT22;23130;48.760;9.178;2022-11-20T12:15:53;7.50;99.90
37240;DHT22;23130;48.760;9.178;2022-11-20T12:18:19;7.60;99.90
37240;DHT22;23130;48.760;9.178;2022-11-20T12:23:51;7.90;99.90
37240;DHT22;23130;48.760;9.178;2022-11-20T12:26:27;8.00;99.90
37240;DHT22;23130;48.760;9.178;2022-11-20T12:36:44;8.20;99.90
37240;DHT22;23130;48.760;9.178;2022-11-20T12:41:51;8.10;99.90
37240;DHT22;23130;48.760;9.178;2022-11-20T12:47:24;8.10;99.90
37240;DHT22;23130;48.760;9.178;2022-11-20T13:08:04;8.00;99.90
37240;DHT22;23130;48.760;9.178;2022-11-20T13:10:42;8.00;99.90
37240;DHT22;23130;48.760;9.178;2022-11-20T13:15:43;8.10;99.90
37240;DHT22;23130;48.760;9.178;2022-11-20T13:18:12;8.20;99.90
37240;DHT22;23130;48.760;9.178;2022-11-20T13:20:42;8.30;99.90
37240;DHT22;23130;48.760;9.178;2022-11-20T13:23:08;8.30;99.90
37240;DHT22;23130;48.760;9.178;2022-11-20T13:25:34;8.30;99.90
37240;DHT22;23130;48.760;9.178;2022-11-20T13:28:01;8.30;99.90
37240;DHT22;23130;48.760;9.178;2022-11-20T13:30:29;8.30;99.90
37240;DHT22;23130;48.760;9.178;2022-11-20T13:38:08;8.20;99.90
37240;DHT22;23130;48.760;9.178;2022-11-20T13:40:35;8.10;99.90
37240;DHT22;23130;48.760;9.178;2022-11-20T13:43:08;7.90;99.90
37240;DHT22;23130;48.760;9.178;2022-11-20T13:45:35;7.90;99.90
37240;DHT22;23130;48.760;9.178;2022-11-20T13:48:04;7.70;99.90
37240;DHT22;23130;48.760;9.178;2022-11-20T13:53:10;7.60;99.90
37240;DHT22;23130;48.760;9.178;2022-11-20T13:55:54;7.70;99.90
37240;DHT22;23130;48.760;9.178;2022-11-20T14:01:19;8.00;99.90
37240;DHT22;23130;48.760;9.178;2022-11-20T14:03:46;8.10;99.90
37240;DHT22;23130;48.760;9.178;2022-11-20T14:06:14;8.10;99.90
37240;DHT22;23130;48.760;9.178;2022-11-20T14:08:43;8.00;99.90
37240;DHT22;23130;48.760;9.178;2022-11-20T14:11:14;7.90;99.90
37240;DHT22;23130;48.760;9.178;2022-11-20T14:13:51;7.70;99.90
37240;DHT22;23130;48.760;9.178;2022-11-20T14:16:19;7.60;99.90
37240;DHT22;23130;48.760;9.178;2022-11-20T14:18:45;7.40;99.90
37240;DHT22;23130;48.760;9.178;2022-11-20T14:21:10;7.30;99.90
37240;DHT22;23130;48.760;9.178;2022-11-20T14:23:36;7.20;99.90
37240;DHT22;23130;48.760;9.178;2022-11-20T14:26:01;7.20;99.90
37240;DHT22;23130;48.760;9.178;2022-11-20T14:28:28;7.10;99.90
37240;DHT22;23130;48.760;9.178;2022-11-20T14:30:54;7.00;99.90
37240;DHT22;23130;48.760;9.178;2022-11-20T14:33:20;6.90;99.90
37240;DHT22;23130;48.760;9.178;2022-11-20T14:35:51;6.90;99.90
37240;DHT22;23130;48.760;9.178;2022-11-20T14:38:17;6.90;99.90
37240;DHT22;23130;48.760;9.178;2022-11-20T14:40:44;7.00;99.90
37240;DHT22;23130;48.760;9.178;2022-11-20T14:45:49;7.00;99.90
37240;DHT22;23130;48.760;9.178;2022-11-20T14:48:15;7.00;99.90
37240;DHT22;23130;48.760;9.178;2022-11-20T14:50:41;6.80;99.90
37240;DHT22;23130;48.760;9.178;2022-11-20T14:53:06;6.80;99.90
37240;DHT22;23130;48.760;9.178;2022-11-20T14:55:36;6.70;99.90
37240;DHT22;23130;48.760;9.178;2022-11-20T14:58:06;6.70;99.90
37240;DHT22;23130;48.760;9.178;2022-11-20T15:00:32;6.60;99.90
37240;DHT22;23130;48.760;9.178;2022-11-20T15:02:58;6.50;99.90
37240;DHT22;23130;48.760;9.178;2022-11-20T15:05:25;6.50;99.90
37240;DHT22;23130;48.760;9.178;2022-11-20T15:07:52;6.40;99.90
37240;DHT22;23130;48.760;9.178;2022-11-20T15:10:28;6.40;99.90
37240;DHT22;23130;48.760;9.178;2022-11-20T15:13:01;6.30;99.90
37240;DHT22;23130;48.760;9.178;2022-11-20T15:15:40;6.20;99.90
37240;DHT22;23130;48.760;9.178;2022-11-20T15:18:10;6.20;99.90
37240;DHT22;23130;48.760;9.178;2022-11-20T15:20:36;6.20;99.90
37240;DHT22;23130;48.760;9.178;2022-11-20T15:23:01;6.10;99.90
37240;DHT22;23130;48.760;9.178;2022-11-20T15:25:27;6.00;99.90
37240;DHT22;23130;48.760;9.178;2022-11-20T15:27:55;6.00;99.90
37240;DHT22;23130;48.760;9.178;2022-11-20T15:30:21;5.90;99.90
37240;DHT22;23130;48.760;9.178;2022-11-20T15:32:47;5.80;99.90
37240;DHT22;23130;48.760;9.178;2022-11-20T15:35:13;5.80;99.90
37240;DHT22;23130;48.760;9.178;2022-11-20T15:37:38;5.80;99.90
37240;DHT22;23130;48.760;9.178;2022-11-20T15:40:04;5.70;99.90
37240;DHT22;23130;48.760;9.178;2022-11-20T15:42:30;5.60;99.90
37240;DHT22;23130;48.760;9.178;2022-11-20T15:44:56;5.60;99.90
37240;DHT22;23130;48.760;9.178;2022-11-20T15:47:32;5.60;99.90
37240;DHT22;23130;48.760;9.178;2022-11-20T15:49:58;5.50;99.90
37240;DHT22;23130;48.760;9.178;2022-11-20T15:52:23;5.50;99.90
37240;DHT22;23130;48.760;9.178;2022-11-20T15:54:48;5.50;99.90
37240;DHT22;23130;48.760;9.178;2022-11-20T15:57:14;5.50;99.90
37240;DHT22;23130;48.760;9.178;2022-11-20T15:59:40;5.40;99.90
37240;DHT22;23130;48.760;9.178;2022-11-20T16:02:13;5.40;99.90
37240;DHT22;23130;48.760;9.178;2022-11-20T16:04:39;5.30;99.90
37240;DHT22;23130;48.760;9.178;2022-11-20T16:07:04;5.30;99.90
37240;DHT22;23130;48.760;9.178;2022-11-20T16:09:30;5.40;99.90
37240;DHT22;23130;48.760;9.178;2022-11-20T16:11:55;5.30;99.90
37240;DHT22;23130;48.760;9.178;2022-11-20T16:14:23;5.20;99.90
37240;DHT22;23130;48.760;9.178;2022-11-20T16:17:07;5.20;99.90
37240;DHT22;23130;48.760;9.178;2022-11-20T16:19:32;5.30;99.90
37240;DHT22;23130;48.760;9.178;2022-11-20T16:21:58;5.30;99.90
37240;DHT22;23130;48.760;9.178;2022-11-20T16:24:26;5.30;99.90
37240;DHT22;23130;48.760;9.178;2022-11-20T16:26:52;5.30;99.90
37240;DHT22;23130;48.760;9.178;2022-11-20T16:29:18;5.40;99.90
37240;DHT22;23130;48.760;9.178;2022-11-20T16:31:43;5.40;99.90
37240;DHT22;23130;48.760;9.178;2022-11-20T16:34:09;5.40;99.90
37240;DHT22;23130;48.760;9.178;2022-11-20T16:36:34;5.40;99.90
37240;DHT22;23130;48.760;9.178;2022-11-20T16:39:01;5.50;99.90
37240;DHT22;23130;48.760;9.178;2022-11-20T16:41:27;5.70;99.90
37240;DHT22;23130;48.760;9.178;2022-11-20T16:43:54;5.70;99.90
37240;DHT22;23130;48.760;9.178;2022-11-20T16:46:22;5.70;99.90
37240;DHT22;23130;48.760;9.178;2022-11-20T16:48:55;5.70;99.90
37240;DHT22;23130;48.760;9.178;2022-11-20T16:51:21;5.70;99.90
37240;DHT22;23130;48.760;9.178;2022-11-20T16:53:47;5.70;99.90
37240;DHT22;23130;48.760;9.178;2022-11-20T16:56:15;5.70;99.90
37240;DHT22;23130;48.760;9.178;2022-11-20T16:58:42;5.70;99.90
37240;DHT22;23130;48.760;9.178;2022-11-20T17:01:08;5.80;99.90
37240;DHT22;23130;48.760;9.178;2022-11-20T17:03:44;5.80;99.90
37240;DHT22;23130;48.760;9.178;2022-11-20T17:06:14;5.80;99.90
37240;DHT22;23130;48.760;9.178;2022-11-20T17:08:40;5.80;99.90
37240;DHT22;23130;48.760;9.178;2022-11-20T17:11:06;5.90;99.90